sensor_id;sensor_type;location;lat;lon;timestamp;P1;durP1;ratioP1;P2;durP2;ratioP2
77591;SDS011;66891;46.884;17.436;2023-06-26T00:01:01;13.27;;;7.32;;
77591;SDS011;66891;46.884;17.436;2023-06-26T00:03:28;12.97;;;6.70;;
77591;SDS011;66891;46.884;17.436;2023-06-26T00:05:56;13.90;;;6.80;;
77591;SDS011;66891;46.884;17.436;2023-06-26T00:08:27;15.00;;;6.40;;
77591;SDS011;66891;46.884;17.436;2023-06-26T00:10:55;14.52;;;6.60;;
77591;SDS011;66891;46.884;17.436;2023-06-26T00:13:23;13.38;;;6.65;;
77591;SDS011;66891;46.884;17.436;2023-06-26T00:15:52;12.83;;;6.90;;
77591;SDS011;66891;46.884;17.436;2023-06-26T00:18:19;14.00;;;6.68;;
77591;SDS011;66891;46.884;17.436;2023-06-26T00:20:47;14.52;;;6.03;;
77591;SDS011;66891;46.884;17.436;2023-06-26T00:23:15;13.23;;;6.88;;
77591;SDS011;66891;46.884;17.436;2023-06-26T00:25:43;13.50;;;6.90;;
77591;SDS011;66891;46.884;17.436;2023-06-26T00:28:11;12.97;;;6.80;;
77591;SDS011;66891;46.884;17.436;2023-06-26T00:30:38;12.57;;;7.00;;
77591;SDS011;66891;46.884;17.436;2023-06-26T00:33:07;12.18;;;6.70;;
77591;SDS011;66891;46.884;17.436;2023-06-26T00:35:34;14.13;;;6.80;;
77591;SDS011;66891;46.884;17.436;2023-06-26T00:38:02;13.77;;;7.65;;
77591;SDS011;66891;46.884;17.436;2023-06-26T00:40:29;12.60;;;6.73;;
77591;SDS011;66891;46.884;17.436;2023-06-26T00:42:56;13.73;;;7.28;;
77591;SDS011;66891;46.884;17.436;2023-06-26T00:45:24;13.27;;;6.57;;
77591;SDS011;66891;46.884;17.436;2023-06-26T00:48:09;12.88;;;6.65;;
77591;SDS011;66891;46.884;17.436;2023-06-26T00:50:40;12.45;;;6.78;;
77591;SDS011;66891;46.884;17.436;2023-06-26T00:53:09;14.60;;;6.87;;
77591;SDS011;66891;46.884;17.436;2023-06-26T00:55:36;12.25;;;6.28;;
77591;SDS011;66891;46.884;17.436;2023-06-26T00:58:04;12.40;;;6.53;;
77591;SDS011;66891;46.884;17.436;2023-06-26T01:00:32;14.40;;;6.93;;
77591;SDS011;66891;46.884;17.436;2023-06-26T01:02:59;13.73;;;6.88;;
77591;SDS011;66891;46.884;17.436;2023-06-26T01:05:28;12.40;;;6.57;;
77591;SDS011;66891;46.884;17.436;2023-06-26T01:07:56;16.20;;;7.18;;
77591;SDS011;66891;46.884;17.436;2023-06-26T01:10:24;13.35;;;6.65;;
77591;SDS011;66891;46.884;17.436;2023-06-26T01:12:54;13.63;;;6.60;;
77591;SDS011;66891;46.884;17.436;2023-06-26T01:15:23;13.75;;;7.50;;
77591;SDS011;66891;46.884;17.436;2023-06-26T01:17:51;13.27;;;6.50;;
77591;SDS011;66891;46.884;17.436;2023-06-26T01:20:19;14.48;;;7.13;;
77591;SDS011;66891;46.884;17.436;2023-06-26T01:22:53;14.10;;;7.60;;
77591;SDS011;66891;46.884;17.436;2023-06-26T01:25:31;13.43;;;6.60;;
77591;SDS011;66891;46.884;17.436;2023-06-26T01:28:09;12.70;;;6.88;;
77591;SDS011;66891;46.884;17.436;2023-06-26T01:30:41;13.40;;;6.30;;
77591;SDS011;66891;46.884;17.436;2023-06-26T01:33:09;14.15;;;6.72;;
77591;SDS011;66891;46.884;17.436;2023-06-26T01:35:38;12.75;;;6.63;;
77591;SDS011;66891;46.884;17.436;2023-06-26T01:38:13;14.82;;;6.88;;
77591;SDS011;66891;46.884;17.436;2023-06-26T01:40:42;13.32;;;6.90;;
77591;SDS011;66891;46.884;17.436;2023-06-26T01:43:15;13.07;;;6.27;;
77591;SDS011;66891;46.884;17.436;2023-06-26T01:45:48;13.70;;;6.80;;
77591;SDS011;66891;46.884;17.436;2023-06-26T01:48:20;12.25;;;6.55;;
77591;SDS011;66891;46.884;17.436;2023-06-26T01:50:51;12.13;;;6.35;;
77591;SDS011;66891;46.884;17.436;2023-06-26T01:53:21;12.43;;;6.72;;
77591;SDS011;66891;46.884;17.436;2023-06-26T01:55:53;12.90;;;6.83;;
77591;SDS011;66891;46.884;17.436;2023-06-26T01:58:23;14.40;;;6.65;;
77591;SDS011;66891;46.884;17.436;2023-06-26T02:00:52;13.68;;;7.10;;
77591;SDS011;66891;46.884;17.436;2023-06-26T02:03:20;13.02;;;6.47;;
77591;SDS011;66891;46.884;17.436;2023-06-26T02:05:47;12.35;;;6.53;;
77591;SDS011;66891;46.884;17.436;2023-06-26T02:08:15;13.67;;;6.93;;
77591;SDS011;66891;46.884;17.436;2023-06-26T02:10:42;17.05;;;7.18;;
77591;SDS011;66891;46.884;17.436;2023-06-26T02:13:09;13.65;;;6.97;;
77591;SDS011;66891;46.884;17.436;2023-06-26T02:15:38;13.25;;;7.32;;
77591;SDS011;66891;46.884;17.436;2023-06-26T02:18:06;15.85;;;7.00;;
77591;SDS011;66891;46.884;17.436;2023-06-26T02:20:33;13.70;;;6.53;;
77591;SDS011;66891;46.884;17.436;2023-06-26T02:23:01;14.52;;;6.50;;
77591;SDS011;66891;46.884;17.436;2023-06-26T02:25:28;14.23;;;6.40;;
77591;SDS011;66891;46.884;17.436;2023-06-26T02:27:56;12.63;;;6.63;;
77591;SDS011;66891;46.884;17.436;2023-06-26T02:30:23;12.48;;;6.50;;
77591;SDS011;66891;46.884;17.436;2023-06-26T02:32:52;12.03;;;6.10;;
77591;SDS011;66891;46.884;17.436;2023-06-26T02:35:19;13.82;;;6.70;;
77591;SDS011;66891;46.884;17.436;2023-06-26T02:37:47;13.57;;;6.72;;
77591;SDS011;66891;46.884;17.436;2023-06-26T02:40:14;12.75;;;6.85;;
77591;SDS011;66891;46.884;17.436;2023-06-26T02:42:41;13.75;;;6.78;;
77591;SDS011;66891;46.884;17.436;2023-06-26T02:45:09;13.13;;;6.30;;
77591;SDS011;66891;46.884;17.436;2023-06-26T02:47:36;13.45;;;6.72;;
77591;SDS011;66891;46.884;17.436;2023-06-26T02:50:08;15.07;;;6.97;;
77591;SDS011;66891;46.884;17.436;2023-06-26T02:52:36;12.82;;;6.55;;
77591;SDS011;66891;46.884;17.436;2023-06-26T02:55:04;13.98;;;7.20;;
77591;SDS011;66891;46.884;17.436;2023-06-26T02:57:32;13.53;;;7.30;;
77591;SDS011;66891;46.884;17.436;2023-06-26T02:59:59;13.38;;;7.43;;
77591;SDS011;66891;46.884;17.436;2023-06-26T03:02:26;13.88;;;6.95;;
77591;SDS011;66891;46.884;17.436;2023-06-26T03:04:54;13.02;;;7.22;;
77591;SDS011;66891;46.884;17.436;2023-06-26T03:07:23;14.35;;;7.57;;
77591;SDS011;66891;46.884;17.436;2023-06-26T03:09:50;13.23;;;6.83;;
77591;SDS011;66891;46.884;17.436;2023-06-26T03:12:18;15.10;;;7.18;;
77591;SDS011;66891;46.884;17.436;2023-06-26T03:14:45;14.45;;;7.00;;
77591;SDS011;66891;46.884;17.436;2023-06-26T03:17:13;13.57;;;7.65;;
77591;SDS011;66891;46.884;17.436;2023-06-26T03:19:40;13.13;;;6.95;;
77591;SDS011;66891;46.884;17.436;2023-06-26T03:22:07;17.07;;;6.67;;
77591;SDS011;66891;46.884;17.436;2023-06-26T03:24:36;12.75;;;7.28;;
77591;SDS011;66891;46.884;17.436;2023-06-26T03:27:03;14.25;;;6.95;;
77591;SDS011;66891;46.884;17.436;2023-06-26T03:29:31;14.43;;;7.35;;
77591;SDS011;66891;46.884;17.436;2023-06-26T03:31:58;13.30;;;6.68;;
77591;SDS011;66891;46.884;17.436;2023-06-26T03:34:26;14.40;;;7.23;;
77591;SDS011;66891;46.884;17.436;2023-06-26T03:36:53;12.65;;;7.00;;
77591;SDS011;66891;46.884;17.436;2023-06-26T03:39:21;12.57;;;7.22;;
77591;SDS011;66891;46.884;17.436;2023-06-26T03:41:50;13.98;;;7.22;;
77591;SDS011;66891;46.884;17.436;2023-06-26T03:44:18;13.60;;;7.50;;
77591;SDS011;66891;46.884;17.436;2023-06-26T03:46:45;15.60;;;7.93;;
77591;SDS011;66891;46.884;17.436;2023-06-26T03:49:12;14.55;;;7.35;;
77591;SDS011;66891;46.884;17.436;2023-06-26T03:51:40;13.02;;;7.03;;
77591;SDS011;66891;46.884;17.436;2023-06-26T03:54:07;14.02;;;7.47;;
77591;SDS011;66891;46.884;17.436;2023-06-26T03:56:34;16.08;;;7.50;;
77591;SDS011;66891;46.884;17.436;2023-06-26T03:59:03;14.30;;;7.67;;
77591;SDS011;66891;46.884;17.436;2023-06-26T04:01:30;13.30;;;7.07;;
77591;SDS011;66891;46.884;17.436;2023-06-26T04:04:00;14.68;;;7.45;;
77591;SDS011;66891;46.884;17.436;2023-06-26T04:06:27;13.65;;;7.40;;
77591;SDS011;66891;46.884;17.436;2023-06-26T04:08:54;13.15;;;7.47;;
77591;SDS011;66891;46.884;17.436;2023-06-26T04:11:22;14.07;;;7.33;;
77591;SDS011;66891;46.884;17.436;2023-06-26T04:13:49;13.02;;;7.22;;
77591;SDS011;66891;46.884;17.436;2023-06-26T04:16:18;14.57;;;7.45;;
77591;SDS011;66891;46.884;17.436;2023-06-26T04:18:45;14.90;;;7.15;;
77591;SDS011;66891;46.884;17.436;2023-06-26T04:21:13;14.18;;;7.15;;
77591;SDS011;66891;46.884;17.436;2023-06-26T04:23:40;14.83;;;7.40;;
77591;SDS011;66891;46.884;17.436;2023-06-26T04:26:08;14.88;;;7.50;;
77591;SDS011;66891;46.884;17.436;2023-06-26T04:28:35;14.18;;;7.68;;
77591;SDS011;66891;46.884;17.436;2023-06-26T04:31:03;16.05;;;7.70;;
77591;SDS011;66891;46.884;17.436;2023-06-26T04:33:32;14.00;;;7.95;;
77591;SDS011;66891;46.884;17.436;2023-06-26T04:35:59;14.93;;;7.37;;
77591;SDS011;66891;46.884;17.436;2023-06-26T04:38:30;15.27;;;7.93;;
77591;SDS011;66891;46.884;17.436;2023-06-26T04:40:58;13.43;;;7.13;;
77591;SDS011;66891;46.884;17.436;2023-06-26T04:43:26;13.90;;;7.15;;
77591;SDS011;66891;46.884;17.436;2023-06-26T04:45:54;12.40;;;6.97;;
77591;SDS011;66891;46.884;17.436;2023-06-26T04:48:21;15.50;;;6.77;;
77591;SDS011;66891;46.884;17.436;2023-06-26T04:50:49;14.05;;;6.95;;
77591;SDS011;66891;46.884;17.436;2023-06-26T04:53:20;15.00;;;7.15;;
77591;SDS011;66891;46.884;17.436;2023-06-26T04:55:48;16.35;;;6.93;;
77591;SDS011;66891;46.884;17.436;2023-06-26T04:58:16;13.38;;;7.47;;
77591;SDS011;66891;46.884;17.436;2023-06-26T05:00:43;12.63;;;7.10;;
77591;SDS011;66891;46.884;17.436;2023-06-26T05:03:11;16.77;;;7.63;;
77591;SDS011;66891;46.884;17.436;2023-06-26T05:05:39;15.73;;;7.32;;
77591;SDS011;66891;46.884;17.436;2023-06-26T05:08:14;14.48;;;7.00;;
77591;SDS011;66891;46.884;17.436;2023-06-26T05:10:42;12.43;;;6.93;;
77591;SDS011;66891;46.884;17.436;2023-06-26T05:13:10;13.67;;;6.07;;
77591;SDS011;66891;46.884;17.436;2023-06-26T05:15:38;13.50;;;6.63;;
77591;SDS011;66891;46.884;17.436;2023-06-26T05:18:05;13.27;;;7.18;;
77591;SDS011;66891;46.884;17.436;2023-06-26T05:20:33;13.45;;;6.57;;
77591;SDS011;66891;46.884;17.436;2023-06-26T05:23:01;13.23;;;6.63;;
77591;SDS011;66891;46.884;17.436;2023-06-26T05:25:30;13.07;;;6.63;;
77591;SDS011;66891;46.884;17.436;2023-06-26T05:27:58;11.65;;;5.90;;
77591;SDS011;66891;46.884;17.436;2023-06-26T05:30:27;12.07;;;6.13;;
77591;SDS011;66891;46.884;17.436;2023-06-26T05:32:54;11.55;;;5.97;;
77591;SDS011;66891;46.884;17.436;2023-06-26T05:35:22;13.93;;;6.05;;
77591;SDS011;66891;46.884;17.436;2023-06-26T05:37:50;12.93;;;6.23;;
77591;SDS011;66891;46.884;17.436;2023-06-26T05:40:19;11.45;;;5.72;;
77591;SDS011;66891;46.884;17.436;2023-06-26T05:42:48;11.95;;;6.20;;
77591;SDS011;66891;46.884;17.436;2023-06-26T05:45:16;11.55;;;6.15;;
77591;SDS011;66891;46.884;17.436;2023-06-26T05:47:43;12.90;;;5.72;;
77591;SDS011;66891;46.884;17.436;2023-06-26T05:50:12;11.83;;;5.63;;
77591;SDS011;66891;46.884;17.436;2023-06-26T05:52:40;12.25;;;5.72;;
77591;SDS011;66891;46.884;17.436;2023-06-26T05:55:08;11.55;;;6.18;;
77591;SDS011;66891;46.884;17.436;2023-06-26T05:57:36;12.23;;;5.68;;
77591;SDS011;66891;46.884;17.436;2023-06-26T06:00:08;11.30;;;4.88;;
77591;SDS011;66891;46.884;17.436;2023-06-26T06:02:39;11.43;;;5.77;;
77591;SDS011;66891;46.884;17.436;2023-06-26T06:05:08;11.35;;;5.85;;
77591;SDS011;66891;46.884;17.436;2023-06-26T06:07:36;10.38;;;5.47;;
77591;SDS011;66891;46.884;17.436;2023-06-26T06:10:03;11.93;;;5.70;;
77591;SDS011;66891;46.884;17.436;2023-06-26T06:12:31;10.10;;;5.13;;
77591;SDS011;66891;46.884;17.436;2023-06-26T06:14:59;10.27;;;4.63;;
77591;SDS011;66891;46.884;17.436;2023-06-26T06:17:27;12.88;;;4.43;;
77591;SDS011;66891;46.884;17.436;2023-06-26T06:19:55;11.52;;;4.90;;
77591;SDS011;66891;46.884;17.436;2023-06-26T06:22:24;10.75;;;4.82;;
77591;SDS011;66891;46.884;17.436;2023-06-26T06:24:52;10.95;;;4.88;;
77591;SDS011;66891;46.884;17.436;2023-06-26T06:27:19;10.47;;;4.67;;
77591;SDS011;66891;46.884;17.436;2023-06-26T06:29:48;9.75;;;4.55;;
77591;SDS011;66891;46.884;17.436;2023-06-26T06:32:17;10.55;;;4.22;;
77591;SDS011;66891;46.884;17.436;2023-06-26T06:34:55;9.90;;;4.82;;
77591;SDS011;66891;46.884;17.436;2023-06-26T06:37:24;9.07;;;4.28;;
77591;SDS011;66891;46.884;17.436;2023-06-26T06:39:54;10.83;;;4.30;;
77591;SDS011;66891;46.884;17.436;2023-06-26T06:42:23;9.50;;;4.70;;
77591;SDS011;66891;46.884;17.436;2023-06-26T06:44:53;11.73;;;4.35;;
77591;SDS011;66891;46.884;17.436;2023-06-26T06:47:21;11.40;;;4.60;;
77591;SDS011;66891;46.884;17.436;2023-06-26T06:49:52;9.82;;;4.63;;
77591;SDS011;66891;46.884;17.436;2023-06-26T06:52:21;9.73;;;4.93;;
77591;SDS011;66891;46.884;17.436;2023-06-26T06:54:53;11.50;;;4.70;;
77591;SDS011;66891;46.884;17.436;2023-06-26T06:57:26;9.68;;;4.25;;
77591;SDS011;66891;46.884;17.436;2023-06-26T06:59:55;9.60;;;4.45;;
77591;SDS011;66891;46.884;17.436;2023-06-26T07:02:24;11.85;;;4.30;;
77591;SDS011;66891;46.884;17.436;2023-06-26T07:04:54;8.30;;;3.90;;
77591;SDS011;66891;46.884;17.436;2023-06-26T07:07:23;9.98;;;4.20;;
77591;SDS011;66891;46.884;17.436;2023-06-26T07:09:51;9.82;;;4.18;;
77591;SDS011;66891;46.884;17.436;2023-06-26T07:12:20;9.35;;;3.72;;
77591;SDS011;66891;46.884;17.436;2023-06-26T07:14:49;9.10;;;3.88;;
77591;SDS011;66891;46.884;17.436;2023-06-26T07:17:18;9.80;;;3.97;;
77591;SDS011;66891;46.884;17.436;2023-06-26T07:19:47;10.02;;;5.10;;
77591;SDS011;66891;46.884;17.436;2023-06-26T07:22:18;9.10;;;3.80;;
77591;SDS011;66891;46.884;17.436;2023-06-26T07:24:48;8.60;;;3.65;;
77591;SDS011;66891;46.884;17.436;2023-06-26T07:27:18;9.45;;;4.15;;
77591;SDS011;66891;46.884;17.436;2023-06-26T07:29:48;10.07;;;4.27;;
77591;SDS011;66891;46.884;17.436;2023-06-26T07:32:17;9.40;;;4.15;;
77591;SDS011;66891;46.884;17.436;2023-06-26T07:34:46;8.15;;;3.75;;
77591;SDS011;66891;46.884;17.436;2023-06-26T07:37:15;9.27;;;3.45;;
77591;SDS011;66891;46.884;17.436;2023-06-26T07:39:47;9.63;;;3.58;;
77591;SDS011;66891;46.884;17.436;2023-06-26T07:42:16;8.33;;;3.47;;
77591;SDS011;66891;46.884;17.436;2023-06-26T07:44:45;10.23;;;4.32;;
77591;SDS011;66891;46.884;17.436;2023-06-26T07:47:15;8.55;;;3.92;;
77591;SDS011;66891;46.884;17.436;2023-06-26T07:49:44;8.27;;;4.10;;
77591;SDS011;66891;46.884;17.436;2023-06-26T07:52:14;9.60;;;4.18;;
77591;SDS011;66891;46.884;17.436;2023-06-26T07:54:45;8.77;;;4.30;;
77591;SDS011;66891;46.884;17.436;2023-06-26T07:57:15;13.15;;;4.18;;
77591;SDS011;66891;46.884;17.436;2023-06-26T07:59:44;9.73;;;4.50;;
77591;SDS011;66891;46.884;17.436;2023-06-26T08:02:14;8.68;;;4.13;;
77591;SDS011;66891;46.884;17.436;2023-06-26T08:04:44;8.93;;;4.32;;
77591;SDS011;66891;46.884;17.436;2023-06-26T08:07:13;10.77;;;3.67;;
77591;SDS011;66891;46.884;17.436;2023-06-26T08:09:45;10.63;;;4.88;;
77591;SDS011;66891;46.884;17.436;2023-06-26T08:12:13;9.52;;;3.60;;
77591;SDS011;66891;46.884;17.436;2023-06-26T08:14:43;8.57;;;4.13;;
77591;SDS011;66891;46.884;17.436;2023-06-26T08:17:12;7.75;;;3.38;;
77591;SDS011;66891;46.884;17.436;2023-06-26T08:19:42;7.03;;;2.93;;
77591;SDS011;66891;46.884;17.436;2023-06-26T08:22:11;7.63;;;2.75;;
77591;SDS011;66891;46.884;17.436;2023-06-26T08:24:40;8.50;;;3.38;;
77591;SDS011;66891;46.884;17.436;2023-06-26T08:27:11;7.53;;;3.38;;
77591;SDS011;66891;46.884;17.436;2023-06-26T08:29:41;7.30;;;2.70;;
77591;SDS011;66891;46.884;17.436;2023-06-26T08:32:10;7.33;;;3.00;;
77591;SDS011;66891;46.884;17.436;2023-06-26T08:34:39;7.72;;;3.22;;
77591;SDS011;66891;46.884;17.436;2023-06-26T08:37:09;10.13;;;3.17;;
77591;SDS011;66891;46.884;17.436;2023-06-26T08:39:37;7.57;;;2.80;;
77591;SDS011;66891;46.884;17.436;2023-06-26T08:42:06;7.47;;;2.80;;
77591;SDS011;66891;46.884;17.436;2023-06-26T08:44:39;7.50;;;3.07;;
77591;SDS011;66891;46.884;17.436;2023-06-26T08:47:27;6.97;;;2.67;;
77591;SDS011;66891;46.884;17.436;2023-06-26T08:50:01;7.82;;;3.22;;
77591;SDS011;66891;46.884;17.436;2023-06-26T08:52:38;8.32;;;2.72;;
77591;SDS011;66891;46.884;17.436;2023-06-26T08:55:12;7.30;;;3.00;;
77591;SDS011;66891;46.884;17.436;2023-06-26T08:57:42;8.00;;;2.90;;
77591;SDS011;66891;46.884;17.436;2023-06-26T09:00:13;7.20;;;3.00;;
77591;SDS011;66891;46.884;17.436;2023-06-26T09:02:42;8.25;;;3.45;;
77591;SDS011;66891;46.884;17.436;2023-06-26T09:05:12;8.70;;;3.03;;
77591;SDS011;66891;46.884;17.436;2023-06-26T09:07:39;8.98;;;3.38;;
77591;SDS011;66891;46.884;17.436;2023-06-26T09:10:07;8.37;;;3.33;;
77591;SDS011;66891;46.884;17.436;2023-06-26T09:12:35;8.85;;;3.38;;
77591;SDS011;66891;46.884;17.436;2023-06-26T09:15:04;8.25;;;3.55;;
77591;SDS011;66891;46.884;17.436;2023-06-26T09:17:39;8.18;;;3.20;;
77591;SDS011;66891;46.884;17.436;2023-06-26T09:20:10;8.10;;;3.80;;
77591;SDS011;66891;46.884;17.436;2023-06-26T09:22:38;7.23;;;3.33;;
77591;SDS011;66891;46.884;17.436;2023-06-26T09:25:07;7.63;;;3.45;;
77591;SDS011;66891;46.884;17.436;2023-06-26T09:27:36;8.35;;;3.70;;
77591;SDS011;66891;46.884;17.436;2023-06-26T09:30:03;9.50;;;3.83;;
77591;SDS011;66891;46.884;17.436;2023-06-26T09:32:35;10.40;;;3.17;;
77591;SDS011;66891;46.884;17.436;2023-06-26T09:35:06;7.33;;;2.83;;
77591;SDS011;66891;46.884;17.436;2023-06-26T09:37:34;7.53;;;3.55;;
77591;SDS011;66891;46.884;17.436;2023-06-26T09:40:02;7.95;;;3.30;;
77591;SDS011;66891;46.884;17.436;2023-06-26T09:42:30;7.80;;;3.30;;
77591;SDS011;66891;46.884;17.436;2023-06-26T09:44:57;7.95;;;3.92;;
77591;SDS011;66891;46.884;17.436;2023-06-26T09:47:25;8.10;;;3.50;;
77591;SDS011;66891;46.884;17.436;2023-06-26T09:49:54;8.80;;;3.60;;
77591;SDS011;66891;46.884;17.436;2023-06-26T09:52:21;7.65;;;3.80;;
77591;SDS011;66891;46.884;17.436;2023-06-26T09:55:06;8.00;;;3.90;;
77591;SDS011;66891;46.884;17.436;2023-06-26T09:57:35;8.98;;;3.92;;
77591;SDS011;66891;46.884;17.436;2023-06-26T10:00:03;8.47;;;3.80;;
77591;SDS011;66891;46.884;17.436;2023-06-26T10:02:31;7.90;;;3.53;;
77591;SDS011;66891;46.884;17.436;2023-06-26T10:05:00;8.82;;;4.43;;
77591;SDS011;66891;46.884;17.436;2023-06-26T10:07:28;9.40;;;4.22;;
77591;SDS011;66891;46.884;17.436;2023-06-26T10:09:55;8.95;;;4.32;;
77591;SDS011;66891;46.884;17.436;2023-06-26T10:12:25;9.90;;;3.73;;
77591;SDS011;66891;46.884;17.436;2023-06-26T10:14:55;10.38;;;4.10;;
77591;SDS011;66891;46.884;17.436;2023-06-26T10:17:25;9.63;;;4.43;;
77591;SDS011;66891;46.884;17.436;2023-06-26T10:19:55;8.93;;;4.45;;
77591;SDS011;66891;46.884;17.436;2023-06-26T10:22:29;8.75;;;4.82;;
77591;SDS011;66891;46.884;17.436;2023-06-26T10:25:03;9.57;;;4.47;;
77591;SDS011;66891;46.884;17.436;2023-06-26T10:27:35;9.95;;;4.93;;
77591;SDS011;66891;46.884;17.436;2023-06-26T10:30:06;8.30;;;4.43;;
77591;SDS011;66891;46.884;17.436;2023-06-26T10:32:39;9.32;;;4.25;;
77591;SDS011;66891;46.884;17.436;2023-06-26T10:35:07;8.75;;;4.85;;
77591;SDS011;66891;46.884;17.436;2023-06-26T10:37:41;9.53;;;4.50;;
77591;SDS011;66891;46.884;17.436;2023-06-26T10:40:10;8.00;;;3.95;;
77591;SDS011;66891;46.884;17.436;2023-06-26T10:42:39;8.32;;;3.85;;
77591;SDS011;66891;46.884;17.436;2023-06-26T10:45:10;8.25;;;3.53;;
77591;SDS011;66891;46.884;17.436;2023-06-26T10:47:41;8.00;;;3.80;;
77591;SDS011;66891;46.884;17.436;2023-06-26T10:50:19;9.17;;;4.00;;
77591;SDS011;66891;46.884;17.436;2023-06-26T10:55:41;7.30;;;3.67;;
77591;SDS011;66891;46.884;17.436;2023-06-26T11:01:17;8.57;;;3.78;;
77591;SDS011;66891;46.884;17.436;2023-06-26T11:04:00;7.73;;;3.73;;
77591;SDS011;66891;46.884;17.436;2023-06-26T11:06:31;7.95;;;3.90;;
77591;SDS011;66891;46.884;17.436;2023-06-26T11:09:08;7.85;;;4.00;;
77591;SDS011;66891;46.884;17.436;2023-06-26T11:11:55;8.63;;;4.23;;
77591;SDS011;66891;46.884;17.436;2023-06-26T11:14:29;8.40;;;3.83;;
77591;SDS011;66891;46.884;17.436;2023-06-26T11:16:57;9.73;;;4.40;;
77591;SDS011;66891;46.884;17.436;2023-06-26T11:19:25;7.70;;;3.75;;
77591;SDS011;66891;46.884;17.436;2023-06-26T11:21:59;9.10;;;3.90;;
77591;SDS011;66891;46.884;17.436;2023-06-26T11:24:29;7.70;;;3.73;;
77591;SDS011;66891;46.884;17.436;2023-06-26T11:27:01;7.85;;;4.60;;
77591;SDS011;66891;46.884;17.436;2023-06-26T11:29:30;9.38;;;4.50;;
77591;SDS011;66891;46.884;17.436;2023-06-26T11:31:59;8.15;;;4.47;;
77591;SDS011;66891;46.884;17.436;2023-06-26T11:34:31;7.45;;;3.67;;
77591;SDS011;66891;46.884;17.436;2023-06-26T11:36:59;8.70;;;4.90;;
77591;SDS011;66891;46.884;17.436;2023-06-26T11:39:31;8.20;;;4.13;;
77591;SDS011;66891;46.884;17.436;2023-06-26T11:41:59;8.45;;;4.13;;
77591;SDS011;66891;46.884;17.436;2023-06-26T11:44:31;8.27;;;4.63;;
77591;SDS011;66891;46.884;17.436;2023-06-26T11:46:58;7.85;;;4.45;;
77591;SDS011;66891;46.884;17.436;2023-06-26T11:49:26;7.60;;;4.70;;
77591;SDS011;66891;46.884;17.436;2023-06-26T11:51:55;8.43;;;4.38;;
77591;SDS011;66891;46.884;17.436;2023-06-26T11:54:23;8.65;;;4.05;;
77591;SDS011;66891;46.884;17.436;2023-06-26T11:57:00;8.15;;;4.70;;
77591;SDS011;66891;46.884;17.436;2023-06-26T11:59:34;8.48;;;4.43;;
77591;SDS011;66891;46.884;17.436;2023-06-26T12:02:06;8.83;;;5.20;;
77591;SDS011;66891;46.884;17.436;2023-06-26T12:04:34;7.82;;;4.22;;
77591;SDS011;66891;46.884;17.436;2023-06-26T12:07:04;8.45;;;4.30;;
77591;SDS011;66891;46.884;17.436;2023-06-26T12:09:37;8.50;;;3.80;;
77591;SDS011;66891;46.884;17.436;2023-06-26T12:12:09;8.48;;;4.40;;
77591;SDS011;66891;46.884;17.436;2023-06-26T12:14:37;7.87;;;4.20;;
77591;SDS011;66891;46.884;17.436;2023-06-26T12:17:08;8.35;;;4.22;;
77591;SDS011;66891;46.884;17.436;2023-06-26T12:19:37;7.72;;;4.32;;
77591;SDS011;66891;46.884;17.436;2023-06-26T12:22:08;7.00;;;4.03;;
77591;SDS011;66891;46.884;17.436;2023-06-26T12:24:37;8.00;;;4.63;;
77591;SDS011;66891;46.884;17.436;2023-06-26T12:27:11;7.93;;;5.03;;
77591;SDS011;66891;46.884;17.436;2023-06-26T12:29:40;7.28;;;4.13;;
77591;SDS011;66891;46.884;17.436;2023-06-26T12:32:13;8.05;;;4.25;;
77591;SDS011;66891;46.884;17.436;2023-06-26T12:34:41;8.18;;;4.80;;
77591;SDS011;66891;46.884;17.436;2023-06-26T12:37:09;7.18;;;4.03;;
77591;SDS011;66891;46.884;17.436;2023-06-26T12:39:46;7.37;;;4.63;;
77591;SDS011;66891;46.884;17.436;2023-06-26T12:42:17;7.70;;;4.15;;
77591;SDS011;66891;46.884;17.436;2023-06-26T12:44:44;6.95;;;3.92;;
77591;SDS011;66891;46.884;17.436;2023-06-26T12:47:12;7.18;;;4.35;;
77591;SDS011;66891;46.884;17.436;2023-06-26T12:49:42;7.55;;;4.10;;
77591;SDS011;66891;46.884;17.436;2023-06-26T12:52:11;6.80;;;4.07;;
77591;SDS011;66891;46.884;17.436;2023-06-26T12:54:39;6.93;;;3.60;;
77591;SDS011;66891;46.884;17.436;2023-06-26T12:57:07;8.23;;;4.03;;
77591;SDS011;66891;46.884;17.436;2023-06-26T12:59:37;8.52;;;4.35;;
77591;SDS011;66891;46.884;17.436;2023-06-26T13:02:05;7.65;;;4.30;;
77591;SDS011;66891;46.884;17.436;2023-06-26T13:04:33;6.53;;;3.20;;
77591;SDS011;66891;46.884;17.436;2023-06-26T13:07:00;7.47;;;3.97;;
77591;SDS011;66891;46.884;17.436;2023-06-26T13:09:31;6.40;;;3.28;;
77591;SDS011;66891;46.884;17.436;2023-06-26T13:12:00;7.93;;;3.35;;
77591;SDS011;66891;46.884;17.436;2023-06-26T13:14:28;7.00;;;2.90;;
77591;SDS011;66891;46.884;17.436;2023-06-26T13:16:56;6.63;;;2.73;;
77591;SDS011;66891;46.884;17.436;2023-06-26T13:19:36;8.15;;;3.03;;
77591;SDS011;66891;46.884;17.436;2023-06-26T13:22:03;7.35;;;2.65;;
77591;SDS011;66891;46.884;17.436;2023-06-26T13:24:31;7.20;;;3.10;;
77591;SDS011;66891;46.884;17.436;2023-06-26T13:26:58;6.93;;;3.17;;
77591;SDS011;66891;46.884;17.436;2023-06-26T13:29:26;6.30;;;3.00;;
77591;SDS011;66891;46.884;17.436;2023-06-26T13:31:53;8.68;;;3.15;;
77591;SDS011;66891;46.884;17.436;2023-06-26T13:34:22;6.60;;;3.20;;
77591;SDS011;66891;46.884;17.436;2023-06-26T13:36:51;7.20;;;3.38;;
77591;SDS011;66891;46.884;17.436;2023-06-26T13:39:18;10.25;;;2.95;;
77591;SDS011;66891;46.884;17.436;2023-06-26T13:41:45;8.50;;;3.07;;
77591;SDS011;66891;46.884;17.436;2023-06-26T13:44:13;7.07;;;2.88;;
77591;SDS011;66891;46.884;17.436;2023-06-26T13:46:56;6.25;;;2.70;;
77591;SDS011;66891;46.884;17.436;2023-06-26T13:49:25;8.80;;;3.40;;
77591;SDS011;66891;46.884;17.436;2023-06-26T13:51:52;6.65;;;3.30;;
77591;SDS011;66891;46.884;17.436;2023-06-26T13:54:20;6.90;;;3.00;;
77591;SDS011;66891;46.884;17.436;2023-06-26T13:56:47;6.70;;;3.08;;
77591;SDS011;66891;46.884;17.436;2023-06-26T13:59:14;7.32;;;2.90;;
77591;SDS011;66891;46.884;17.436;2023-06-26T14:01:47;7.18;;;2.88;;
77591;SDS011;66891;46.884;17.436;2023-06-26T14:04:15;7.10;;;2.95;;
77591;SDS011;66891;46.884;17.436;2023-06-26T14:06:44;6.30;;;2.77;;
77591;SDS011;66891;46.884;17.436;2023-06-26T14:09:12;7.47;;;2.92;;
77591;SDS011;66891;46.884;17.436;2023-06-26T14:11:39;7.45;;;2.83;;
77591;SDS011;66891;46.884;17.436;2023-06-26T14:14:07;5.95;;;2.50;;
77591;SDS011;66891;46.884;17.436;2023-06-26T14:16:34;6.55;;;2.50;;
77591;SDS011;66891;46.884;17.436;2023-06-26T14:19:04;6.20;;;2.80;;
77591;SDS011;66891;46.884;17.436;2023-06-26T14:21:33;6.90;;;2.67;;
77591;SDS011;66891;46.884;17.436;2023-06-26T14:24:03;6.70;;;2.55;;
77591;SDS011;66891;46.884;17.436;2023-06-26T14:26:30;7.25;;;2.90;;
77591;SDS011;66891;46.884;17.436;2023-06-26T14:28:58;7.13;;;2.33;;
77591;SDS011;66891;46.884;17.436;2023-06-26T14:31:26;7.27;;;3.40;;
77591;SDS011;66891;46.884;17.436;2023-06-26T14:33:54;6.25;;;2.97;;
77591;SDS011;66891;46.884;17.436;2023-06-26T14:36:21;6.53;;;2.80;;
77591;SDS011;66891;46.884;17.436;2023-06-26T14:38:48;6.65;;;3.00;;
77591;SDS011;66891;46.884;17.436;2023-06-26T14:41:17;7.75;;;3.40;;
77591;SDS011;66891;46.884;17.436;2023-06-26T14:43:45;7.00;;;2.77;;
77591;SDS011;66891;46.884;17.436;2023-06-26T14:46:13;7.40;;;2.97;;